x

9440910 - Toke Point, Wa (tokw1) Weather Station

1:54 - Sat 31st Jan 2015 All times are PST. -8 hours from GMT.

  • Wind
    11mph, 15mph gusts
  • Air Temp 52°f
  • Sea Pressure 1020.1mb
  • 9440910 - Toke Point, Wa
  • 9440910 - Toke Point, Wa

More Historic Weather Station data

Upgrade to MSW Pro to gain access to the past 30 days of data for over 8000 Wavebouys and Weather Stations around the globe.

Join Pro

Comparision Forecast

View Surf forecast
   
sam. 01/31 1:54 11 15 mph 1020.1mb 52f
1:48 13 14 mph 1019.9mb 52f
1:42 10 13 mph 1020.2mb 52f
1:36 11 14 mph 1020.3mb 51f
1:30 11 14 mph 1020.3mb 51f
1:24 13 14 mph 1020.2mb 51f
1:18 13 14 mph 1020.3mb 51f
1:12 13 14 mph 1020.4mb 51f
1:06 11 13 mph 1020.5mb 51f
1:00 11 13 mph 1020.6mb 51f
12:54 11 13 mph 1020.8mb 51f
12:48 10 13 mph 1020.9mb 50f
12:42 10 13 mph 1021.1mb 50f
12:36 11 14 mph 1021.1mb 50f
12:30 13 15 mph 1021mb 50f
12:24 14 15 mph 1021mb 50f
12:18 14 16 mph 1021.1mb 50f
12:12 14 17 mph 1021.2mb 49f
12:06 15 17 mph 1021.2mb 49f
12:00 14 16 mph 1021.6mb 49f
11:54 14 15 mph 1021.7mb 49f
11:48 14 15 mph 1021.8mb 49f
11:42 15 16 mph 1021.9mb 49f
11:36 14 16 mph 1021.9mb 49f
11:30 14 15 mph 1021.9mb 49f
11:24 14 17 mph 1021.9mb 49f
11:18 16 17 mph 1022mb 48f
11:12 15 17 mph 1022.1mb 48f
11:06 14 18 mph 1022.1mb 48f
11:00 16 18 mph 1021.8mb 48f
10:54 16 17 mph 1021.8mb 48f
10:48 14 15 mph 1022mb 48f
10:42 13 14 mph 1022.2mb 48f
10:36 13 15 mph 1022.2mb 48f
10:30 14 16 mph 1022.2mb 48f
10:24 11 14 mph 1022.4mb 47f
10:18 15 17 mph 1022.3mb 47f
10:12 15 17 mph 1022mb 47f
10:06 15 17 mph 1022.1mb 46f
10:00 16 17 mph 1022.1mb 46f
9:54 13 14 mph 1022.5mb 46f
9:48 13 14 mph 1022.8mb 46f
9:42 11 13 mph 1023mb 46f
9:36 11 13 mph 1022.9mb 46f
9:30 11 13 mph 1022.8mb 45f
9:24 10 11 mph 1022.8mb 45f
9:18 9 11 mph 1022.9mb 45f
9:12 10 11 mph 1022.8mb 45f
9:06 9 11 mph 1022.7mb 45f
9:00 10 13 mph 1022.6mb 44f
8:54 11 14 mph 1022.4mb 44f
8:48 11 13 mph 1022.5mb 45f
8:42 10 13 mph 1022.6mb 45f
8:36 10 11 mph 1022.6mb 45f
8:30 10 11 mph 1022.7mb 44f
8:24 9 10 mph 1022.9mb 45f
8:18 9 10 mph 1022.9mb 44f
8:12 8 9 mph 1023mb 45f
8:06 7 8 mph 1023mb 45f
8:00 7 8 mph 1023.1mb 45f
7:54 7 9 mph 1023.2mb 45f
7:48 6 8 mph 1023.1mb 45f
7:42 7 9 mph 1023mb 45f
7:36 8 9 mph 1022.9mb 45f
7:30 8 9 mph 1022.8mb 45f
7:24 8 9 mph 1022.8mb 45f
7:18 8 10 mph 1022.6mb 45f
7:12 8 10 mph 1022.5mb 44f
7:06 9 11 mph 1022.6mb 44f
7:00 8 9 mph 1022.7mb 44f
6:54 8 10 mph 1022.7mb 44f
6:48 9 10 mph 1022.6mb 44f
6:42 9 10 mph 1022.6mb 45f
6:36 8 9 mph 1022.7mb 44f
6:30 8 10 mph 1022.8mb 44f
6:24 8 10 mph 1022.7mb 44f
6:18 8 9 mph 1022.8mb 45f
6:12 6 7 mph 1023mb 45f
6:06 5 6 mph 1023.1mb 45f
6:00 6 8 mph 1023.2mb 45f
5:54 6 8 mph 1023.1mb 44f
5:48 6 8 mph 1022.9mb 44f
5:42 7 8 mph 1022.9mb 44f
5:36 8 9 mph 1022.8mb 44f
5:30 8 10 mph 1022.8mb 43f
5:24 9 11 mph 1022.8mb 43f
5:18 9 13 mph 1022.9mb 43f
5:12 10 13 mph 1022.8mb 43f
5:06 10 14 mph 1022.6mb 42f
5:00 13 14 mph 1022.5mb 42f
4:54 11 14 mph 1022.6mb 42f
4:48 11 13 mph 1022.7mb 42f
4:42 10 13 mph 1022.5mb 42f
4:36 10 13 mph 1022.6mb 42f
4:30 11 13 mph 1022.8mb 42f
4:24 10 11 mph 1022.9mb 42f
4:18 8 9 mph 1022.9mb 42f
4:12 8 11 mph 1023.1mb 43f
4:06 9 11 mph 1023.2mb 43f
4:00 10 13 mph 1023.2mb 43f
3:54 10 13 mph 1023.2mb 43f
3:48 10 13 mph 1023.1mb 43f
3:42 11 14 mph 1023.1mb 43f
3:36 11 14 mph 1023.1mb 43f
3:30 11 14 mph 1023.2mb 43f
3:24 10 11 mph 1023.4mb 43f
3:18 9 11 mph 1023.5mb 43f
3:12 10 13 mph 1023.5mb 43f
3:06 10 11 mph 1023.4mb 43f
3:00 11 14 mph 1023.4mb 43f
2:54 11 13 mph 1023.4mb 43f
2:48 9 10 mph 1023.6mb 43f
2:42 9 13 mph 1023.6mb 42f
2:36 11 13 mph 1023.6mb 43f
2:30 11 13 mph 1023.6mb 43f
2:24 10 13 mph 1023.6mb 44f
2:18 11
mph
1023.7mb 44f
2:12 9 11 mph 1023.7mb 45f
2:06 10 11 mph 1023.8mb 44f
2:00 7 9 mph 1023.8mb 45f
1:54 6 7 mph 1023.8mb 45f
1:48 5 6 mph 1023.8mb 44f
1:42 6 7 mph 1023.7mb 44f
1:36 6
mph
1023.8mb 44f
1:30 5 6 mph 1023.8mb 44f
1:24 3 7 mph 1023.7mb 45f
1:18 5 6 mph 1023.7mb 45f
1:12 6
mph
1023.7mb 44f
12:42 7 8 mph 1023.4mb 45f
12:36 6 8 mph 1023.4mb 44f
12:30 8 9 mph 1023.5mb 44f
12:24 7 8 mph 1023.6mb 44f
12:18 3 5 mph 1023.7mb 44f
12:12 2 6 mph 1023.6mb 44f
12:06 6 7 mph 1023.6mb 44f
12:00 7 8 mph 1023.6mb 44f
ven. 01/30 11:54 8
mph
1023.6mb 44f
11:48 8 9 mph 1023.6mb 44f
11:42 8 9 mph 1023.6mb 44f
11:36 8 9 mph 1023.7mb 44f
11:30 8 9 mph 1023.8mb 44f
11:24 7 9 mph 1023.7mb 45f
11:18 7 9 mph 1023.8mb 45f
11:12 8 9 mph 1023.7mb 45f
11:06 8 9 mph 1023.8mb 45f
11:00 7 8 mph 1023.9mb 45f
10:54 5 6 mph 1023.9mb 46f
10:48 2
mph
1024mb 46f
10:42 2 3 mph 1024mb 46f
10:36 3 6 mph 1024mb 46f
10:30 5 6 mph 1024mb 46f
10:24 6 7 mph 1024.1mb 46f
10:18 7 8 mph 1024.1mb 46f
10:12 7 8 mph 1024.1mb 45f
10:06 7 8 mph 1024.2mb 45f
10:00 6 7 mph 1024.2mb 45f
9:54 6 8 mph 1024.2mb 45f
9:48 7 8 mph 1024.1mb 46f
9:42 5 6 mph 1024.1mb 46f
9:36 5 6 mph 1024.2mb 46f
9:30 5
mph
1024.2mb 46f
9:24 3 5 mph 1024.2mb 46f
9:18 3 7 mph 1024.3mb 46f
9:12 5 7 mph 1024.2mb 47f
9:06 7 8 mph 1024.2mb 47f
9:00 8
mph
1024.2mb 47f
8:54 7 8 mph 1024.2mb 47f
8:48 7 8 mph 1024.2mb 47f
8:42 6 7 mph 1024.2mb 47f
8:36 2 5 mph 1024.1mb 47f
8:30 3 9 mph 1024.1mb 46f
8:24 9 10 mph 1024.1mb 46f
8:18 9 11 mph 1024.2mb 46f
8:12 9 10 mph 1024.3mb 47f
8:06 8 10 mph 1024.3mb 47f
8:00 9 10 mph 1024.4mb 47f
7:54 9 13 mph 1024.4mb 47f
7:48 10 11 mph 1024.5mb 47f
7:42 10 11 mph 1024.5mb 47f
7:36 9 10 mph 1024.4mb 47f
7:30 9 11 mph 1024.4mb 47f
7:24 11 13 mph 1024.4mb 47f
7:18 8 9 mph 1024.5mb -
7:12 7 8 mph 1024.5mb -
7:06 8
mph
1024.6mb -
7:00 6 7 mph 1024.6mb 47f
6:54 5 7 mph 1024.7mb 46f
6:48 7 8 mph 1024.8mb 47f
6:42 9
mph
1024.8mb 47f
6:36 8 9 mph 1024.7mb 47f
6:30 8
mph
1024.7mb 48f
6:24 7 8 mph 1024.6mb 48f
6:18 6 7 mph 1024.5mb 48f
6:12 7 8 mph 1024.5mb 48f
6:06 8
mph
1024.5mb 48f
6:00 8
mph
1024.5mb 49f
5:54 7 8 mph 1024.5mb 49f
5:48 6 8 mph 1024.5mb 49f
5:42 6
mph
1024.5mb 50f
5:36 6 7 mph 1024.5mb 50f
5:30 6 8 mph 1024.6mb 50f
5:24 7 8 mph 1024.6mb 50f
5:18 6 8 mph 1024.6mb 50f
5:12 7 9 mph 1024.7mb 51f
5:06 7 9 mph 1024.7mb 51f
5:00 8 9 mph 1024.6mb 51f
4:54 8 9 mph 1024.5mb 52f
4:48 8 9 mph 1024.6mb 53f
4:42 6 8 mph 1024.5mb 53f
4:36 8
mph
1024.5mb 53f
4:30 7 8 mph 1024.4mb 53f
4:24 5 6 mph 1024.2mb 53f
4:18 3 5 mph 1024.3mb 53f
4:12 5 7 mph 1024.3mb 54f
4:06 7 9 mph 1024.4mb 53f
4:00 6 9 mph 1024.4mb 53f
3:54 9 11 mph 1024.5mb 53f
3:48 10 14 mph 1024.6mb 53f
3:42 11 14 mph 1024.5mb 53f
3:36 10 11 mph 1024.5mb 53f
3:30 10 13 mph 1024.5mb 53f
3:24 14 15 mph 1024.6mb 53f
3:18 11 14 mph 1024.6mb 53f
3:12 9 11 mph 1024.6mb 53f
3:06 9 13 mph 1024.5mb 53f
3:00 10 14 mph 1024.6mb 53f
2:54 11 14 mph 1024.7mb 53f
2:48 11 14 mph 1024.7mb 54f
2:42 13 16 mph 1024.7mb 53f
2:36 13 15 mph 1024.7mb 53f
2:30 10 14 mph 1024.7mb 54f
2:24 13 15 mph 1024.6mb 54f
2:18 13 14 mph 1024.5mb 54f
2:12 11 13 mph 1024.6mb 54f
2:06 8
mph
1024.5mb 54f
2:00 2 7 mph 1024.5mb 54f
1:54 3 6 mph 1024.5mb 53f
1:48 2 7 mph 1024.5mb 54f
1:42 5 7 mph 1024.6mb 54f
1:36 1 2 mph 1024.5mb 54f
1:30  -  1 mph 1024.4mb 54f
1:24  -  1 mph 1024.3mb 54f
1:18 1 2 mph 1024.2mb 54f
1:12 1 2 mph 1024.4mb 53f
1:06  -  2 mph 1024.4mb 53f
1:00 1 3 mph 1024.4mb 52f
12:54 3
mph
1024.6mb 51f
12:48 2
mph
1024.7mb 52f
12:42 1 5 mph 1024.9mb 51f
12:36 5
mph
1024.8mb 50f
12:30 5 6 mph 1024.9mb 50f
12:24 2 3 mph 1025.1mb 51f
12:18 3
mph
1025.1mb 51f
12:12 3 5 mph 1025.2mb 50f
12:06 3
mph
1025.2mb 50f
12:00 2
mph
1025.4mb 50f
11:54 2 3 mph 1025.5mb 49f
11:48 3 5 mph 1025.5mb 49f
11:42 5 6 mph 1025.6mb 49f
11:36 6 7 mph 1025.7mb 49f
11:30 6
mph
1025.7mb 48f
11:24 6 7 mph 1025.7mb 48f
11:18 6 7 mph 1025.6mb 47f
11:12 7 8 mph 1025.6mb 47f
11:06 7 9 mph 1025.7mb 47f
11:00 9 10 mph 1025.6mb 46f
10:54 9 10 mph 1025.6mb 46f
10:48 10
mph
1025.7mb 46f
10:42 9 11 mph 1025.6mb 46f
10:36 11 13 mph 1025.8mb 46f
10:30 9 11 mph 1025.8mb 46f
10:24 10 11 mph 1025.8mb 45f
10:18 10 13 mph 1025.8mb 45f
10:12 11 14 mph 1025.8mb 45f
10:06 11 13 mph 1025.8mb 45f
10:00 10 11 mph 1026.1mb 45f
9:54 10 11 mph 1026.1mb 45f
9:48 10 11 mph 1026mb 45f
9:42 9 11 mph 1026.1mb 45f
9:36 8 11 mph 1026mb 45f
9:30 10 11 mph 1026.1mb 45f
9:24 10 13 mph 1026mb 45f
9:18 11 13 mph 1025.9mb 45f
9:12 10 13 mph 1026.1mb 45f
9:06 11 13 mph 1026.1mb 45f
9:00 10 13 mph 1026.2mb 45f
8:54 11 13 mph 1026.3mb 44f
8:48 10 11 mph 1026.2mb 44f
8:42 11 13 mph 1026.1mb 44f
8:36 11 13 mph 1026.1mb 43f
8:30 13 17 mph 1026mb 44f
8:24 14 15 mph 1026mb 44f
8:18 10 13 mph 1026.1mb 44f
8:12 10 13 mph 1026.1mb 44f
8:06 9 10 mph 1026mb 44f
8:00 9 11 mph 1026.2mb 44f
7:54 8 10 mph 1026.1mb 44f
7:48 9 11 mph 1025.9mb 44f
7:42 8 9 mph 1025.9mb 44f
7:36 8 9 mph 1025.9mb 45f
7:30 6 7 mph 1025.8mb 44f
7:24 6 7 mph 1025.9mb 44f
7:18 5 7 mph 1026mb 44f
7:12 6 8 mph 1026mb 44f
7:06 7 10 mph 1026mb 44f
7:00 10 11 mph 1026mb 43f
6:54 10 13 mph 1025.9mb 43f
6:48 11 13 mph 1025.8mb 43f
6:42 11 13 mph 1025.8mb 43f
6:36 11 13 mph 1025.8mb 43f
6:30 10 13 mph 1025.9mb 43f
6:24 10 11 mph 1025.8mb 43f
6:18 10 11 mph 1025.9mb 44f
6:12 10 13 mph 1025.9mb 44f
6:06 10 11 mph 1025.8mb 44f
6:00 9 11 mph 1025.7mb 44f
5:54 9 10 mph 1025.8mb 43f
5:48 9
mph
1025.9mb 44f
5:42 6 8 mph 1025.8mb 45f
5:36 7 9 mph 1026mb 45f
5:30 9 10 mph 1026mb 44f
5:24 9 11 mph 1026mb 44f
5:18 10 11 mph 1025.9mb 44f
5:12 10 11 mph 1025.8mb 44f
5:06 10 13 mph 1025.9mb 44f
5:00 10 13 mph 1025.9mb 45f
4:54 11 14 mph 1025.9mb 45f
4:48 11 13 mph 1025.8mb 46f
4:42 11 14 mph 1025.8mb 46f
4:36 7 9 mph 1025.7mb 46f
4:30 6 7 mph 1025.9mb 46f
4:24 6 9 mph 1025.9mb 44f
4:18 9 10 mph 1025.9mb 43f
4:12 10 11 mph 1025.9mb 44f
4:06 9 10 mph 1025.9mb 43f
4:00 6 9 mph 1025.9mb 44f
3:54 6 8 mph 1025.8mb 45f
3:48 8 9 mph 1025.6mb 45f
3:42 6 8 mph 1025.7mb 44f
3:36 7 8 mph 1025.8mb 44f
3:30 6 7 mph 1025.8mb 44f
3:24 7 8 mph 1025.8mb 44f
3:18 6 10 mph 1026mb 45f
3:12 9 11 mph 1026mb 45f
3:06 9 11 mph 1025.8mb 45f
3:00 10 11 mph 1025.7mb 45f
2:54 10 11 mph 1025.8mb 45f
2:48 10 11 mph 1025.8mb 46f
2:42 9 10 mph 1025.8mb 46f
2:36 8 10 mph 1025.9mb 46f
2:30 8 9 mph 1026mb 46f
2:24 6 7 mph 1026.1mb 46f
2:18 6 7 mph 1026.1mb 46f
2:12 6 7 mph 1025.9mb 46f
2:06 5 8 mph 1025.9mb 46f
2:00 7 8 mph 1025.9mb 47f
1:54 8 9 mph 1025.8mb 46f
1:48 8 9 mph 1025.7mb 47f
1:42 6 7 mph 1025.7mb 47f
1:36 6 7 mph 1025.7mb 46f
1:30 6 7 mph 1025.7mb 45f
1:24 6 7 mph 1025.7mb 46f
1:18 6 7 mph 1025.6mb 45f
1:12 6 8 mph 1025.6mb 45f
1:06 7 8 mph 1025.6mb 45f
1:00 7 8 mph 1025.6mb 46f
12:54 7 8 mph 1025.6mb 46f
12:48 6 8 mph 1025.6mb 46f
12:42 9 11 mph 1025.6mb 48f
12:36 8 10 mph 1025.5mb 48f
12:30 8 10 mph 1025.5mb 48f
12:24 8 11 mph 1025.5mb 48f
12:18 8 10 mph 1025.4mb 48f
12:12 8 10 mph 1025.4mb 48f
12:06 9 10 mph 1025.4mb 48f
12:00 9 11 mph 1025.4mb 48f
jeu. 01/29 11:54 9 10 mph 1025.4mb 48f
11:48 10 11 mph 1025.4mb 48f
11:42 10 11 mph 1025.3mb 49f
11:36 7 9 mph 1025.4mb 49f
11:30 8 10 mph 1025.4mb 49f
11:24 8 10 mph 1025.5mb 48f
11:18 8 11 mph 1025.5mb 48f
11:12 9 11 mph 1025.5mb 48f
11:06 9 10 mph 1025.5mb 48f
11:00 10 11 mph 1025.4mb 47f
10:54 11 13 mph 1025.3mb 47f
10:48 11 13 mph 1025.4mb -
10:42 10 11 mph 1025.3mb -
10:36 10 13 mph 1025.4mb -
10:30 10 11 mph 1025.4mb 48f
10:24 9 10 mph 1025.4mb 48f
10:18 9 11 mph 1025.4mb 48f
10:12 9 10 mph 1025.3mb 48f
10:06 9 10 mph 1025.4mb 48f
10:00 8 9 mph 1025.3mb 48f
9:54 8 9 mph 1025.3mb 48f
9:48 8 9 mph 1025.4mb 48f
9:42 7 8 mph 1025.4mb 49f
9:36 7
mph
1025.4mb 49f
9:30 6 7 mph 1025.4mb 49f
9:24 5 6 mph 1025.5mb 48f
9:18 3 5 mph 1025.4mb 48f
9:12 3 5 mph 1025.4mb 48f
9:06 3 5 mph 1025.4mb 47f
9:00 3 5 mph 1025.4mb 48f
8:54 3 6 mph 1025.4mb 48f
8:48 5 6 mph 1025.4mb 48f
8:42 5 8 mph 1025.4mb 48f
8:36 8 10 mph 1025.4mb 50f
8:30 9 11 mph 1025.3mb 50f
8:24 9 13 mph 1025.3mb 50f
8:18 10 11 mph 1025.3mb 50f
8:12 10 15 mph 1025.2mb 50f
8:06 14 15 mph 1025.2mb 50f
8:00 14 15 mph 1025mb 50f
7:54 11 14 mph 1025mb 51f
7:48 11 14 mph 1025mb 51f
7:42 8 9 mph 1025mb 51f
7:36 8 9 mph 1025mb 51f
7:30 8 9 mph 1025.1mb 51f
7:24 9 10 mph 1025.2mb 51f
7:18 9 10 mph 1025.2mb 52f
7:12 8 9 mph 1025.2mb 52f
7:06 6 8 mph 1025.3mb 51f
7:00 8 10 mph 1025.4mb 52f
6:54 9 10 mph 1025.3mb 52f
6:48 8 9 mph 1025.4mb 52f
6:42 8 9 mph 1025.4mb 52f
6:36 8 9 mph 1025.4mb 52f
6:30 7 8 mph 1025.4mb 52f
6:24 8 10 mph 1025.4mb 53f
6:18 7 10 mph 1025.4mb 53f
6:12 8 9 mph 1025.5mb 53f
6:06 8 9 mph 1025.5mb 53f
6:00 9 10 mph 1025.5mb 53f
5:54 8 9 mph 1025.4mb 54f
5:48 9 10 mph 1025.5mb 54f
5:42 9 11 mph 1025.5mb 55f
5:36 9 11 mph 1025.5mb 55f
5:30 9 10 mph 1025.5mb 55f
5:24 9 10 mph 1025.5mb 55f
5:18 8 10 mph 1025.5mb 55f
5:12 8 9 mph 1025.5mb 56f
5:06 7 9 mph 1025.4mb 56f
5:00 7 10 mph 1025.3mb 56f
4:54 8 10 mph 1025.3mb 56f
4:48 9 10 mph 1025.2mb 57f
4:42 6 7 mph 1025.2mb 57f
4:36 6 7 mph 1025.1mb 57f
4:30 6 7 mph 1025mb 56f
4:24 6 8 mph 1024.9mb 56f
4:18 8 10 mph 1024.8mb 57f
4:12 10
mph
1024.8mb 57f
4:06 9 10 mph 1024.8mb 56f
4:00 9 10 mph 1024.7mb 56f
3:54 8 10 mph 1024.7mb 56f
3:48 10 11 mph 1024.6mb 56f
3:42 11
mph
1024.6mb 57f
3:36 11 13 mph 1024.7mb 57f
3:30 11 13 mph 1024.7mb 57f
3:24 11 13 mph 1024.7mb 57f
3:18 10 11 mph 1024.8mb 57f
3:12 10
mph
1024.8mb 57f
3:06 8 9 mph 1024.9mb 57f
3:00 8 9 mph 1024.9mb 56f
2:54 8 9 mph 1025mb 56f
2:48 7
mph
1025mb 56f
2:42 7
mph
1025mb 56f
2:36 6 7 mph 1025mb 56f
2:30 7 8 mph 1025mb 56f
2:24 6 7 mph 1025.1mb 55f
2:18 5 6 mph 1025.1mb 55f
2:12 5 6 mph 1025.1mb 55f
2:06 5 6 mph 1025.1mb 55f
2:00 5 7 mph 1025.1mb 54f
1:54 7 8 mph 1025.1mb 54f
1:48 8 9 mph 1025.2mb 55f
1:42 6 7 mph 1025.2mb 54f
1:36 6 7 mph 1025.3mb 54f
1:30 7
mph
1025.4mb 55f
1:24 6
mph
1025.4mb 54f
1:18 6 8 mph 1025.4mb 53f
1:12 8
mph
1025.4mb 53f
1:06 8
mph
1025.5mb 53f
1:00 7
mph
1025.7mb 53f
12:54 5 6 mph 1025.9mb 53f
12:48 6 8 mph 1026mb 53f
12:42 8
mph
1026mb 53f
12:36 7 8 mph 1026mb 52f
12:30 7 8 mph 1026.1mb 51f
12:24 7 8 mph 1026.2mb 51f
12:18 7 8 mph 1026.3mb 51f
12:12 7
mph
1026.4mb 51f
12:06 6 7 mph 1026.5mb 51f
12:00 6 7 mph 1026.6mb 51f
11:54 6 7 mph 1026.7mb 51f
11:48 6 7 mph 1026.8mb 51f
11:42 7
mph
1026.8mb 50f
11:36 6
mph
1026.9mb 50f
11:30 6
mph
1026.9mb 50f
11:24 6
mph
1027mb 50f
11:18 6
mph
1027mb 50f
11:12 5 6 mph 1027.1mb 50f
11:06 6
mph
1027.1mb 50f
11:00 6
mph
1027.1mb 49f
10:54 6 7 mph 1027.2mb 49f
10:48 7 8 mph 1027.2mb 49f
10:30 9
mph
1027.2mb 49f
10:24 8 9 mph 1027.2mb 49f
10:18 8 10 mph 1027.1mb 48f
10:12 9 10 mph 1027mb 48f
10:06 8 10 mph 1027.1mb 48f
10:00 8 10 mph 1027.1mb 48f
9:54 9 10 mph 1027.1mb 48f
9:48 8 10 mph 1027mb 48f
9:42 9
mph
1027mb 48f
9:36 9 10 mph 1026.8mb 47f
9:30 8 9 mph 1026.9mb 47f
9:24 8 10 mph 1026.9mb 47f
9:18 9 10 mph 1026.8mb 47f
9:12 9
mph
1026.8mb 47f
9:06 9 10 mph 1026.8mb 47f
9:00 9 10 mph 1026.8mb 47f
8:54 8 9 mph 1026.8mb 47f
8:48 8 9 mph 1026.8mb 47f
8:42 9 10 mph 1026.8mb 47f
8:36 9 10 mph 1026.8mb 47f
8:30 9 10 mph 1026.8mb 47f
8:24 9 13 mph 1026.7mb 46f
8:18 10 13 mph 1026.7mb 47f
8:12 11 13 mph 1026.6mb 47f
8:06 13
mph
1026.6mb 47f
8:00 11 14 mph 1026.7mb 47f
7:54 11 13 mph 1026.6mb 47f
7:48 10 13 mph 1026.6mb 47f
7:00 14 15 mph 1026.6mb 47f
6:54 14 16 mph 1026.6mb 47f
6:48 11 15 mph 1026.6mb 47f
6:42 14 15 mph 1026.6mb 47f
6:36 13 15 mph 1026.6mb 47f
6:30 15 16 mph 1026.6mb 47f
6:24 15 17 mph 1026.6mb 47f
6:18 15 17 mph 1026.5mb 47f
6:12 14 17 mph 1026.6mb 47f
6:06 16 17 mph 1026.6mb 47f
6:00 15 16 mph 1026.6mb 47f
5:54 14 15 mph 1026.7mb 47f
5:48 13 16 mph 1026.7mb 47f
5:42 15 16 mph 1026.6mb 47f
5:36 14 16 mph 1026.7mb 47f
5:30 15 17 mph 1026.8mb 47f
5:24 16
mph
1026.8mb 47f
5:18 15 16 mph 1026.8mb 48f
5:12 13 16 mph 1026.8mb 48f
5:06 13 15 mph 1026.8mb 48f
5:00 13 15 mph 1026.9mb 48f
4:54 13 16 mph 1026.9mb 48f
4:48 14 16 mph 1026.9mb 48f
4:42 14 16 mph 1026.8mb 48f
4:36 14 15 mph 1026.7mb 48f
4:30 13 15 mph 1026.8mb 48f
4:24 13 14 mph 1026.9mb 48f
4:18 11 14 mph 1027mb 48f
4:12 11 13 mph 1027mb 47f
4:06 11 14 mph 1027.1mb 48f
4:00 10 11 mph 1027.1mb 48f
3:54 10 13 mph 1027.1mb 48f
3:48 10 13 mph 1027.1mb 48f
3:42 10 13 mph 1027.1mb 48f
3:36 10 13 mph 1027.1mb 48f
3:30 9 10 mph 1027.1mb 48f
3:24 9 11 mph 1027.2mb 48f
3:18 9 11 mph 1027.2mb 48f
3:12 9 10 mph 1027.2mb 48f
3:06 8 10 mph 1027.2mb 48f
3:00 8 9 mph 1027.2mb 48f
2:54 9 11 mph 1027.2mb 48f
2:48 9 10 mph 1027.2mb 48f
2:42 10 11 mph 1027.2mb 48f
2:36 9 10 mph 1027.3mb 48f
2:30 8 10 mph 1027.3mb 48f
2:24 9 10 mph 1027.3mb 48f
2:18 9 11 mph 1027.3mb 48f
2:12 9 11 mph 1027.2mb 48f
2:06 10 14 mph 1027.2mb 48f
2:00 11 14 mph 1027.2mb 49f
1:54 11 15 mph 1027.1mb 49f
1:48 14 16 mph 1027.1mb 49f
1:42 15 16 mph 1027mb 49f
1:36 15 17 mph 1026.9mb 49f
1:30 15 17 mph 1026.9mb 49f
1:24 14 17 mph 1026.9mb 49f
1:18 15 17 mph 1026.8mb 48f
1:12 16 17 mph 1026.8mb 48f
1:06 16 17 mph 1026.8mb 48f
1:00 15 18 mph 1026.8mb 48f
12:54 15 18 mph 1026.8mb 48f
12:48 17 20 mph 1026.8mb 48f
12:42 16 18 mph 1026.9mb 48f
12:36 16 18 mph 1026.9mb 48f
12:30 17 21 mph 1026.9mb 48f
12:24 17 20 mph 1026.9mb 48f
12:18 17 20 mph 1026.9mb 48f
12:12 16 20 mph 1026.9mb 48f
12:06 17 20 mph 1026.9mb 48f
12:00 17 20 mph 1027mb 48f
mer. 01/28 11:54 18 21 mph 1027mb 48f
11:48 18 20 mph 1026.9mb 48f
11:42 17 21 mph 1027mb 48f
11:36 18 21 mph 1027mb 48f
11:30 17 18 mph 1027mb 48f
11:24 16 17 mph 1027.1mb 48f
11:18 13 14 mph 1027.1mb 48f
11:12 11 14 mph 1027.2mb 48f
11:06 11 14 mph 1027.2mb 48f
11:00 13 15 mph 1027.1mb 48f
10:54 13 14 mph 1027.1mb 48f
10:48 11 14 mph 1027.1mb 48f
10:42 11 14 mph 1027.1mb 48f
10:36 11 14 mph 1027.1mb 48f
10:30 13 14 mph 1027.1mb 48f
10:24 11 13 mph 1027.2mb 48f
10:18 11 14 mph 1027.2mb 48f
10:12 11 14 mph 1027.2mb 48f
10:06 11 14 mph 1027.2mb 48f
10:00 11 14 mph 1027.2mb 48f
9:54 10 14 mph 1027.2mb 48f
9:48 13 16 mph 1027.2mb 48f
9:42 11 15 mph 1027.2mb 48f
9:36 13 15 mph 1027.2mb 48f
9:30 13 14 mph 1027.2mb 48f
9:24 11 14 mph 1027.2mb 48f
9:18 10 11 mph 1027.3mb 48f
9:12 9 10 mph 1027.3mb 48f
9:06 9 10 mph 1027.3mb 48f
9:00 8 9 mph 1027.3mb 48f
8:54 8 9 mph 1027.3mb 48f
8:48 8 9 mph 1027.2mb 48f
8:42 8 9 mph 1027.2mb 48f
8:36 8 9 mph 1027.1mb 48f
8:30 9 10 mph 1027.2mb 48f
8:24 9 10 mph 1027.2mb 48f
8:18 9 10 mph 1027.1mb 48f
8:12 9 10 mph 1027.1mb 48f
8:06 9 10 mph 1027.1mb 48f
8:00 9 10 mph 1027.1mb 48f
7:54 9 10 mph 1027.1mb 48f
7:48 10 11 mph 1027.1mb 48f
7:42 10 13 mph 1027.1mb 48f
7:36 11 14 mph 1027.1mb 49f
7:30 11 14 mph 1027mb 49f
7:24 13 14 mph 1027.1mb 49f
7:18 13 14 mph 1027.1mb 49f
7:12 11 14 mph 1027.1mb 49f
7:06 11 14 mph 1027.1mb 49f
7:00 10 13 mph 1027.1mb 49f
6:54 11 14 mph 1027.1mb 49f
6:48 11 14 mph 1027mb 49f
6:42 13 14 mph 1027.1mb 49f
6:36 11 13 mph 1027.1mb 49f
6:30 9 13 mph 1027mb 49f
6:24 10 14 mph 1027mb 50f
6:18 8 13 mph 1027.1mb 49f
6:12 10 11 mph 1027mb 50f
6:06 9 11 mph 1027mb 50f
6:00 10 11 mph 1026.9mb -
5:54 9 11 mph 1026.9mb -
5:48 10 11 mph 1026.9mb 50f
5:42 11 13 mph 1026.8mb 50f
5:36 11 13 mph 1026.8mb 51f
5:30 10 11 mph 1026.8mb 51f
5:24 8 9 mph 1026.9mb 51f
5:18 8 11 mph 1026.9mb 52f
5:12 10 11 mph 1026.8mb 52f
5:06 9 10 mph 1026.8mb 52f
5:00 9 10 mph 1026.8mb 52f
4:54 9
mph
1026.7mb 53f
4:48 8 9 mph 1026.7mb 53f
4:42 7 8 mph 1026.8mb 53f
4:36 7 8 mph 1026.8mb 53f
4:30 7 8 mph 1026.8mb 53f
4:24 7 8 mph 1026.9mb 53f
4:18 8
mph
1026.9mb 53f
4:12 7 8 mph 1026.9mb 53f
4:06 8 9 mph 1026.8mb 53f
4:00 8 10 mph 1026.7mb 53f
3:54 8 9 mph 1026.8mb 53f
3:48 7 9 mph 1026.8mb 53f
3:42 10 13 mph 1026.8mb 53f
3:36 9 10 mph 1026.8mb 53f
3:30 10 11 mph 1026.8mb 53f
3:24 9 11 mph 1026.7mb 53f
3:18 10 11 mph 1026.8mb 53f
3:12 7 9 mph 1026.9mb 53f
3:06 6 8 mph 1026.9mb 53f
3:00 7 8 mph 1026.9mb 53f
2:54 7 8 mph 1026.9mb 53f
2:48 7 8 mph 1027mb 53f
2:42 7 8 mph 1027mb 53f
2:36 7 9 mph 1026.9mb 53f
2:30 8 9 mph 1026.9mb 53f
2:24 8 9 mph 1026.9mb 52f
2:18 7 9 mph 1026.9mb 52f
2:12 8 10 mph 1026.9mb 52f
2:06 9 11 mph 1027mb 52f
2:00  -  mph 1027.1mb -
1:54  -  mph 1027.2mb -
1:48 10 11 mph 1027.2mb 51f
1:42 9 11 mph 1027.3mb 51f
1:36 7 9 mph 1027.3mb 51f
1:30 8 9 mph 1027.4mb 51f
1:24 8 9 mph 1027.5mb 51f
1:18  -  mph - 50f
1:12  -  mph - 50f
1:06  -  mph - 50f
1:00 8
mph
1027.8mb 50f
12:54 7 8 mph 1027.8mb 50f
12:48 8
mph
1027.9mb 49f
12:42 8 9 mph 1027.9mb 49f
12:36 8 9 mph 1027.9mb 49f
12:30 8 9 mph 1028mb 49f
12:24 8 9 mph 1028mb 49f
12:18 7 8 mph 1028.1mb 49f
12:12 8 9 mph 1028.1mb 48f
12:06 8 9 mph 1028.2mb 48f
12:00 8 10 mph 1028.2mb 48f
11:54 9 10 mph 1028.2mb 48f
11:48 8 10 mph 1028.2mb 48f
11:42 9 10 mph 1028.3mb 47f
11:36 8 11 mph 1028.4mb 47f
11:30 9 10 mph 1028.4mb 47f
11:24 9 11 mph 1028.4mb 47f
11:18 10 11 mph 1028.4mb 47f
11:12 9 11 mph 1028.4mb 47f
11:06 10 13 mph 1028.4mb 47f
11:00 9 10 mph 1028.4mb 47f
10:54 9 11 mph 1028.4mb 47f
10:48 9 15 mph 1028.4mb 47f
10:42 13 14 mph 1028.4mb 47f
10:36 10 14 mph 1028.4mb 46f
10:30 13 15 mph 1028.3mb 46f
10:24 14 15 mph 1028.3mb 46f
10:18 14
mph
1028.3mb 46f
10:12 14 15 mph 1028.2mb 45f
10:06 13 15 mph 1028.2mb 46f
10:00  -  mph 1028.2mb 45f
9:54  -  mph 1028.2mb 45f
9:48 11 14 mph 1028.2mb 45f
9:42 11 14 mph 1028.1mb 45f
9:36 13 15 mph 1028mb 45f
9:30 10 18 mph 1027.9mb 45f
9:24 14 17 mph 1027.8mb 45f
9:18 14 17 mph 1027.8mb 45f
9:12 14 18 mph 1027.7mb 44f
9:06 14 18 mph 1027.7mb 45f
9:00 11 15 mph 1027.7mb 44f
8:54 13 15 mph 1027.7mb 44f
8:48 10 13 mph 1027.8mb 44f
8:42 10 14 mph 1027.7mb 44f
8:36 13 16 mph 1027.6mb 44f
8:30 9 13 mph 1027.6mb 44f
8:24 9 11 mph 1027.6mb 43f
8:18 9 10 mph 1027.7mb 43f
8:12 10
mph
1027.7mb 43f
8:06 9 10 mph 1027.7mb 43f
8:00  -  mph - 43f
7:54  -  mph - 43f
7:48 7 8 mph 1027.5mb 44f
7:42 6 8 mph 1027.4mb 44f
7:36 6 7 mph 1027.4mb 44f
7:30 6 9 mph 1027.3mb 44f
7:24 7 9 mph 1027.3mb 44f
7:18 6 8 mph 1027.2mb 44f
7:12 6 7 mph 1027.2mb 45f
7:06 7 8 mph 1027.2mb 44f
7:00 7 9 mph 1027.2mb 44f
6:54 7 9 mph 1027.1mb 44f
6:48 8 9 mph 1027mb 44f
6:42 8 9 mph 1026.9mb 44f
6:36 9 10 mph 1026.8mb 44f
6:30 9 10 mph 1026.8mb 44f
6:24 9 10 mph 1026.8mb 44f
6:18 8 9 mph 1026.8mb 44f
6:12 7 8 mph 1026.9mb 44f
6:06 8 10 mph 1027mb 44f
6:00 9 10 mph 1026.9mb 44f
5:54 8 9 mph 1026.9mb 44f
5:48 8 9 mph 1026.8mb 44f
5:42 8 9 mph 1026.8mb 45f
5:36 7 8 mph 1026.9mb 45f
5:30 6 8 mph 1026.9mb 45f
5:24 5 6 mph 1027mb 45f
5:18 3 6 mph 1027mb 45f
5:12 5 6 mph 1027mb 45f
5:06 5 7 mph 1027mb 45f
5:00 6 7 mph 1027mb 45f
4:54 6 7 mph 1027mb 45f
4:48 5 6 mph 1026.9mb 46f
4:42 6 7 mph 1026.9mb 46f
4:36 6 8 mph 1026.9mb 46f
4:30 6 10 mph 1026.9mb 46f
4:24 8 9 mph 1026.9mb 46f
4:18 7 8 mph 1027mb 46f
4:12 7 8 mph 1026.9mb 46f
4:06 7 8 mph 1027mb 46f
4:00 7 8 mph 1027mb 47f
3:54 7 9 mph 1027mb 47f
3:48 8 9 mph 1027mb 47f
3:42 8 9 mph 1027mb 47f
3:36 7 8 mph 1027mb 47f
3:30 5 6 mph 1027mb 47f
3:24 5 6 mph 1027mb 47f
3:18 3 5 mph 1027mb 47f
3:12 3 6 mph 1027mb 47f
3:06 6 8 mph 1027mb 47f
3:00 7 8 mph 1027mb 47f
2:54 5 7 mph 1027mb 47f
2:48 6 10 mph 1027mb -
2:42 5 8 mph 1027.1mb -
2:36 2 7 mph 1027.1mb -
2:30 6 7 mph 1027mb 47f
2:24 3 8 mph 1027mb 47f
2:18 6 7 mph 1027mb 47f
2:12 5 6 mph 1027mb 48f
2:06 3 5 mph 1027mb 48f
2:00 2 5 mph 1027mb 47f
1:54 5 8 mph 1027mb 47f
1:48 5 9 mph 1026.9mb 48f
1:42 7 8 mph 1026.8mb 48f
1:36 5 8 mph 1026.8mb 48f
1:30 3 6 mph 1026.8mb 47f
1:24 5 6 mph 1026.8mb 47f
1:18 5 6 mph 1026.7mb 47f
1:12 6
mph
1026.7mb 47f
1:06 5 7 mph 1026.6mb 48f
1:00 5 6 mph 1026.6mb 48f
12:54 6
mph
1026.5mb 47f
12:48 5 6 mph 1026.5mb 48f
12:42 3 6 mph 1026.4mb 47f
12:36 5 7 mph 1026.3mb 47f
12:30 2 5 mph 1026.3mb 48f
12:24 3 5 mph 1026.3mb 48f
12:18 3 5 mph 1026.2mb 48f
12:12 5 6 mph 1026.2mb 48f
12:06 3 6 mph 1026.2mb 48f
12:00 6 7 mph 1026.2mb 48f
mar. 01/27 11:54 3 5 mph 1026.1mb 48f
11:48 2 3 mph 1026.1mb 48f
11:42 2 6 mph 1026mb 48f
11:36 5 6 mph 1026mb 48f
11:30 5 6 mph 1025.9mb 48f
11:24 5 6 mph 1025.9mb 48f
11:18 5 6 mph 1025.8mb 48f
11:12 1 3 mph 1025.8mb 48f
11:06 2 6 mph 1025.8mb 48f
11:00 6 8 mph 1025.8mb 48f
10:54 7 10 mph 1025.8mb 48f
10:48 2 3 mph 1025.7mb 48f
10:42 2 6 mph 1025.6mb 48f